LFSB METAR :   2016/08/27 02:30 LFSB 270230Z 21002KT CAVOK 17/16 Q1018 NOSIG

TAF  2016/08/26 18:21 TAF TAF LFSB 261700Z 2618/2718 34004KT CAVOK